createdAt,value
2018-12-16T00:01:55.602Z,6.50
2018-12-16T00:04:22.469Z,6.53
2018-12-16T00:06:49.310Z,6.60
2018-12-16T00:09:16.319Z,6.80
2018-12-16T00:11:43.176Z,6.83
2018-12-16T00:14:10.025Z,6.67
2018-12-16T00:16:36.852Z,6.20
2018-12-16T00:19:03.678Z,6.73
2018-12-16T00:21:30.519Z,6.43
2018-12-16T00:23:57.353Z,5.90
2018-12-16T00:26:24.188Z,6.43
2018-12-16T00:28:55.346Z,5.70
2018-12-16T00:31:28.349Z,5.60
2018-12-16T00:33:55.161Z,6.00
2018-12-16T00:36:22.022Z,6.13
2018-12-16T00:38:48.862Z,6.83
2018-12-16T00:41:15.714Z,6.70
2018-12-16T00:43:42.582Z,6.10
2018-12-16T00:46:09.409Z,6.33
2018-12-16T00:48:36.243Z,5.97
2018-12-16T00:51:03.095Z,6.00
2018-12-16T00:53:29.956Z,6.27
2018-12-16T00:55:56.977Z,6.87
2018-12-16T00:58:23.810Z,7.20
2018-12-16T01:00:50.658Z,6.00
2018-12-16T01:03:17.498Z,6.67
2018-12-16T01:05:44.324Z,6.60
2018-12-16T01:08:11.159Z,5.83
2018-12-16T01:10:38.038Z,6.33
2018-12-16T01:13:04.891Z,6.33
2018-12-16T01:15:31.721Z,6.73
2018-12-16T01:17:58.558Z,6.23
2018-12-16T01:20:25.543Z,6.37
2018-12-16T01:22:52.358Z,6.20
2018-12-16T01:25:19.288Z,6.73
2018-12-16T01:27:46.124Z,7.00
2018-12-16T01:30:13.173Z,6.77
2018-12-16T01:32:40.010Z,6.10
2018-12-16T01:35:06.850Z,7.47
2018-12-16T01:37:33.686Z,6.23
2018-12-16T01:40:00.669Z,5.67
2018-12-16T01:42:27.515Z,5.63
2018-12-16T01:44:54.381Z,6.80
2018-12-16T01:47:21.225Z,5.83
2018-12-16T01:49:48.264Z,5.90
2018-12-16T01:52:15.095Z,5.63
2018-12-16T01:54:41.957Z,6.03
2018-12-16T01:57:08.870Z,5.97
2018-12-16T01:59:35.874Z,6.50
2018-12-16T02:02:02.745Z,5.87
2018-12-16T02:04:29.564Z,6.33
2018-12-16T02:06:56.686Z,5.87
2018-12-16T02:09:23.522Z,5.97
2018-12-16T02:11:50.459Z,5.40
2018-12-16T02:14:17.466Z,5.83
2018-12-16T02:16:44.365Z,6.53
2018-12-16T02:19:11.283Z,6.57
2018-12-16T02:21:38.356Z,5.73
2018-12-16T02:24:05.322Z,4.77
2018-12-16T02:26:33.989Z,5.17
2018-12-16T02:29:01.021Z,5.60
2018-12-16T02:31:27.858Z,5.70
2018-12-16T02:33:56.149Z,5.90
2018-12-16T02:36:24.229Z,5.70
2018-12-16T02:38:51.286Z,6.10
2018-12-16T02:41:18.302Z,5.67
2018-12-16T02:43:45.987Z,4.80
2018-12-16T02:46:12.921Z,5.67
2018-12-16T02:48:39.961Z,5.57
2018-12-16T02:51:07.105Z,5.40
2018-12-16T02:53:33.922Z,5.67
2018-12-16T02:56:01.625Z,5.17
2018-12-16T02:58:28.642Z,5.57
2018-12-16T03:00:55.683Z,5.53
2018-12-16T03:03:22.625Z,5.20
2018-12-16T03:05:49.578Z,5.17
2018-12-16T03:08:16.411Z,5.63
2018-12-16T03:10:43.448Z,5.67
2018-12-16T03:13:10.373Z,5.07
2018-12-16T03:15:37.298Z,5.20
2018-12-16T03:18:04.360Z,5.17
2018-12-16T03:20:31.691Z,5.33
2018-12-16T03:22:58.696Z,5.43
2018-12-16T03:25:25.556Z,4.67
2018-12-16T03:27:52.560Z,5.60
2018-12-16T03:30:19.613Z,5.43
2018-12-16T03:32:46.578Z,4.87
2018-12-16T03:35:13.492Z,5.30
2018-12-16T03:37:40.447Z,5.60
2018-12-16T03:40:07.529Z,5.70
2018-12-16T03:42:34.538Z,5.00
2018-12-16T03:45:02.738Z,5.23
2018-12-16T03:47:32.695Z,5.83
2018-12-16T03:49:59.937Z,5.03
2018-12-16T03:52:26.828Z,4.73
2018-12-16T03:55:02.394Z,5.00
2018-12-16T03:57:29.420Z,4.50
2018-12-16T03:59:56.593Z,4.93
2018-12-16T04:02:23.498Z,5.37
2018-12-16T04:04:50.389Z,4.53
2018-12-16T04:07:17.309Z,5.20
2018-12-16T04:09:44.304Z,5.20
2018-12-16T04:12:11.169Z,5.30
2018-12-16T04:14:38.029Z,5.47
2018-12-16T04:17:04.866Z,5.00
2018-12-16T04:19:31.953Z,5.53
2018-12-16T04:21:59.041Z,4.63
2018-12-16T04:24:25.848Z,4.90
2018-12-16T04:26:52.680Z,5.00
2018-12-16T04:29:19.551Z,5.00
2018-12-16T04:31:46.380Z,5.20
2018-12-16T04:34:13.218Z,4.87
2018-12-16T04:36:40.053Z,4.80
2018-12-16T04:39:06.898Z,5.10
2018-12-16T04:41:33.747Z,4.63
2018-12-16T04:44:00.602Z,5.10
2018-12-16T04:46:27.454Z,4.70
2018-12-16T04:48:54.329Z,4.57
2018-12-16T04:51:21.346Z,5.33
2018-12-16T04:53:48.163Z,4.50
2018-12-16T04:56:15.065Z,6.00
2018-12-16T04:58:41.904Z,4.40
2018-12-16T05:01:08.835Z,5.27
2018-12-16T05:03:35.699Z,4.93
2018-12-16T05:06:02.600Z,4.77
2018-12-16T05:08:29.515Z,4.80
2018-12-16T05:10:56.392Z,4.50
2018-12-16T05:13:23.235Z,4.70
2018-12-16T05:15:50.064Z,4.40
2018-12-16T05:18:16.921Z,4.57
2018-12-16T05:20:43.990Z,4.43
2018-12-16T05:23:10.792Z,4.67
2018-12-16T05:25:37.652Z,4.50
2018-12-16T05:28:04.499Z,5.43
2018-12-16T05:30:31.356Z,4.70
2018-12-16T05:32:58.215Z,4.47
2018-12-16T05:35:25.094Z,4.70
2018-12-16T05:37:51.937Z,4.70
2018-12-16T05:40:18.977Z,4.70
2018-12-16T05:42:45.819Z,4.50
2018-12-16T05:45:12.670Z,4.90
2018-12-16T05:47:39.659Z,4.87
2018-12-16T05:50:06.694Z,4.20
2018-12-16T05:52:33.603Z,5.00
2018-12-16T05:55:00.406Z,4.17
2018-12-16T05:57:28.242Z,4.40
2018-12-16T05:59:55.176Z,4.77
2018-12-16T06:02:22.019Z,4.40
2018-12-16T06:04:49.006Z,4.70
2018-12-16T06:07:15.851Z,4.43
2018-12-16T06:09:42.867Z,4.37
2018-12-16T06:12:09.756Z,5.43
2018-12-16T06:14:36.559Z,4.50
2018-12-16T06:17:03.438Z,4.90
2018-12-16T06:19:30.445Z,4.80
2018-12-16T06:21:57.305Z,5.37
2018-12-16T06:24:24.161Z,4.90
2018-12-16T06:26:51.092Z,4.70
2018-12-16T06:29:18.037Z,5.10
2018-12-16T06:31:44.877Z,4.37
2018-12-16T06:34:11.902Z,4.37
2018-12-16T06:36:38.902Z,4.07
2018-12-16T06:39:05.770Z,5.03
2018-12-16T06:41:32.593Z,4.87
2018-12-16T06:43:59.483Z,4.80
2018-12-16T06:46:26.367Z,4.70
2018-12-16T06:48:53.228Z,5.03
2018-12-16T06:51:20.230Z,5.13
2018-12-16T06:53:47.089Z,4.27
2018-12-16T06:56:13.961Z,5.00
2018-12-16T06:58:40.850Z,4.80
2018-12-16T07:01:07.815Z,5.40
2018-12-16T07:03:34.652Z,5.47
2018-12-16T07:06:01.491Z,4.80
2018-12-16T07:08:28.406Z,5.37
2018-12-16T07:10:55.462Z,4.97
2018-12-16T07:13:22.257Z,4.43
2018-12-16T07:15:49.094Z,4.50
2018-12-16T07:18:16.118Z,6.03
2018-12-16T07:20:43.186Z,4.70
2018-12-16T07:23:10.039Z,5.00
2018-12-16T07:25:36.938Z,5.00
2018-12-16T07:28:03.876Z,4.97
2018-12-16T07:30:30.938Z,4.43
2018-12-16T07:32:57.766Z,4.83
2018-12-16T07:35:24.682Z,4.80
2018-12-16T07:37:51.523Z,4.70
2018-12-16T07:40:18.539Z,4.53
2018-12-16T07:42:45.454Z,4.77
2018-12-16T07:45:12.374Z,4.23
2018-12-16T07:47:39.308Z,4.23
2018-12-16T07:50:06.308Z,4.53
2018-12-16T07:52:33.180Z,4.90
2018-12-16T07:55:00.024Z,4.60
2018-12-16T07:57:26.866Z,4.60
2018-12-16T07:59:53.886Z,4.87
2018-12-16T08:02:21.637Z,4.50
2018-12-16T08:04:48.592Z,4.17
2018-12-16T08:07:15.446Z,4.60
2018-12-16T08:09:42.496Z,4.83
2018-12-16T08:12:09.380Z,4.50
2018-12-16T08:14:36.321Z,4.27
2018-12-16T08:17:03.151Z,4.20
2018-12-16T08:19:30.041Z,5.00
2018-12-16T08:21:56.879Z,4.57
2018-12-16T08:24:23.734Z,4.60
2018-12-16T08:26:50.561Z,4.37
2018-12-16T08:29:17.511Z,5.33
2018-12-16T08:31:44.596Z,4.50
2018-12-16T08:34:11.399Z,4.57
2018-12-16T08:36:38.251Z,4.20
2018-12-16T08:39:05.084Z,4.37
2018-12-16T08:41:31.924Z,4.43
2018-12-16T08:43:58.759Z,4.87
2018-12-16T08:46:25.610Z,4.17
2018-12-16T08:48:52.448Z,3.80
2018-12-16T08:51:19.420Z,4.10
2018-12-16T08:53:46.263Z,4.80
2018-12-16T08:56:13.103Z,4.23
2018-12-16T08:58:39.947Z,4.10
2018-12-16T09:01:06.988Z,3.93
2018-12-16T09:03:33.814Z,4.47
2018-12-16T09:06:00.656Z,4.03
2018-12-16T09:08:27.498Z,4.43
2018-12-16T09:10:59.135Z,4.10
2018-12-16T09:13:31.455Z,3.90
2018-12-16T09:16:08.946Z,3.87
2018-12-16T09:18:38.704Z,4.07
2018-12-16T09:21:10.814Z,3.70
2018-12-16T09:23:37.671Z,4.33
2018-12-16T09:26:04.503Z,4.07
2018-12-16T09:28:31.359Z,4.47
2018-12-16T09:30:58.460Z,3.93
2018-12-16T09:33:25.435Z,3.70
2018-12-16T09:35:55.962Z,3.93
2018-12-16T09:38:22.850Z,3.87
2018-12-16T09:40:50.834Z,3.70
2018-12-16T09:43:17.961Z,4.00
2018-12-16T09:45:49.479Z,4.10
2018-12-16T09:48:13.776Z,4.33
2018-12-16T09:50:40.769Z,3.77
2018-12-16T09:53:07.702Z,4.37
2018-12-16T09:55:34.533Z,4.13
2018-12-16T09:58:01.392Z,4.17
2018-12-16T10:00:28.319Z,4.80
2018-12-16T10:02:55.426Z,3.80
2018-12-16T10:05:22.320Z,3.70
2018-12-16T10:07:49.247Z,4.30
2018-12-16T10:10:21.322Z,30.00
2018-12-16T10:12:48.354Z,15.37
2018-12-16T10:15:16.120Z,13.50
2018-12-16T10:17:43.006Z,11.10
2018-12-16T10:20:13.639Z,11.67
2018-12-16T10:22:40.750Z,9.63
2018-12-16T10:25:07.727Z,7.37
2018-12-16T10:27:34.834Z,7.63
2018-12-16T10:30:01.974Z,6.27
2018-12-16T10:32:32.468Z,5.80
2018-12-16T10:34:59.774Z,6.10
2018-12-16T10:37:26.909Z,6.67
2018-12-16T10:40:02.338Z,6.47
2018-12-16T10:42:29.205Z,5.50
2018-12-16T10:44:56.126Z,5.23
2018-12-16T10:52:49.547Z,5.50
2018-12-16T10:55:16.574Z,5.60
2018-12-16T10:57:44.504Z,5.30
2018-12-16T11:00:11.552Z,5.17
2018-12-16T11:02:38.437Z,5.70
2018-12-16T11:05:05.476Z,6.37
2018-12-16T11:07:32.334Z,4.53
2018-12-16T11:10:02.580Z,6.33
2018-12-16T11:12:29.467Z,5.60
2018-12-16T11:14:56.521Z,5.10
2018-12-16T11:17:23.667Z,4.63
2018-12-16T11:19:50.659Z,5.10
2018-12-16T11:22:18.596Z,5.43
2018-12-16T11:24:46.657Z,4.27
2018-12-16T11:27:13.500Z,4.60
2018-12-16T11:29:40.828Z,4.60
2018-12-16T11:32:11.654Z,4.80
2018-12-16T11:34:38.505Z,5.37
2018-12-16T11:37:12.007Z,4.90
2018-12-16T11:39:39.096Z,5.90
2018-12-16T11:42:06.111Z,4.53
2018-12-16T11:44:33.166Z,4.80
2018-12-16T11:46:59.996Z,4.73
2018-12-16T11:49:27.021Z,5.50
2018-12-16T11:51:53.908Z,4.63
2018-12-16T11:54:20.812Z,4.87
2018-12-16T11:56:48.329Z,5.17
2018-12-16T11:59:15.206Z,5.13
2018-12-16T12:01:42.150Z,4.50
2018-12-16T12:04:09.115Z,5.23
2018-12-16T12:06:36.000Z,4.60
2018-12-16T12:09:02.874Z,4.70
2018-12-16T12:11:29.783Z,4.03
2018-12-16T12:13:56.655Z,4.20
2018-12-16T12:16:23.566Z,3.70
2018-12-16T12:18:50.488Z,4.00
2018-12-16T12:23:56.703Z,3.40
2018-12-16T12:26:32.379Z,3.70
2018-12-16T12:28:59.286Z,4.20
2018-12-16T12:31:26.782Z,3.87
2018-12-16T12:33:53.874Z,3.60
2018-12-16T12:36:20.716Z,3.93
2018-12-16T12:38:47.685Z,3.23
2018-12-16T12:41:14.704Z,2.80
2018-12-16T12:43:41.571Z,3.80
2018-12-16T12:46:08.525Z,3.40
2018-12-16T12:48:35.468Z,3.50
2018-12-16T12:51:02.576Z,3.70
2018-12-16T12:53:29.404Z,3.00
2018-12-16T12:55:56.274Z,3.27
2018-12-16T12:58:23.126Z,3.40
2018-12-16T13:00:50.033Z,3.20
2018-12-16T13:03:16.867Z,3.23
2018-12-16T13:05:43.723Z,3.27
2018-12-16T13:08:10.587Z,3.47
2018-12-16T13:10:37.589Z,3.57
2018-12-16T13:13:04.434Z,2.90
2018-12-16T13:15:31.316Z,3.43
2018-12-16T13:17:58.207Z,3.37
2018-12-16T13:20:25.184Z,3.10
2018-12-16T13:22:52.009Z,3.37
2018-12-16T13:25:18.882Z,3.07
2018-12-16T13:27:45.713Z,2.60
2018-12-16T13:30:12.760Z,2.70
2018-12-16T13:32:39.792Z,2.17
2018-12-16T13:35:06.647Z,2.77
2018-12-16T13:37:33.495Z,2.20
2018-12-16T13:40:00.542Z,2.20
2018-12-16T13:42:27.384Z,2.40
2018-12-16T13:44:54.214Z,2.57
2018-12-16T13:47:21.533Z,2.50
2018-12-16T13:49:48.520Z,2.20
2018-12-16T13:52:15.363Z,2.47
2018-12-16T13:54:42.252Z,2.17
2018-12-16T13:57:09.307Z,2.37
2018-12-16T13:59:36.289Z,2.53
2018-12-16T14:02:03.139Z,2.63
2018-12-16T14:04:29.981Z,2.27
2018-12-16T14:06:56.821Z,2.77
2018-12-16T14:09:23.672Z,2.30
2018-12-16T14:11:50.615Z,2.43
2018-12-16T14:14:17.670Z,2.43
2018-12-16T14:16:44.510Z,2.40
2018-12-16T14:19:11.349Z,2.53
2018-12-16T14:21:38.198Z,2.50
2018-12-16T14:24:05.137Z,2.70
2018-12-16T14:26:31.964Z,2.17
2018-12-16T14:28:58.806Z,2.13
2018-12-16T14:31:25.641Z,2.77
2018-12-16T14:33:52.485Z,2.43
2018-12-16T14:36:19.322Z,2.37
2018-12-16T14:38:46.629Z,2.30
2018-12-16T14:41:13.882Z,2.00
2018-12-16T14:43:40.706Z,2.27
2018-12-16T14:46:07.735Z,2.03
2018-12-16T14:48:34.627Z,1.97
2018-12-16T14:51:01.635Z,2.40
2018-12-16T14:53:28.462Z,1.80
2018-12-16T14:55:55.592Z,2.20
2018-12-16T14:58:22.578Z,2.37
2018-12-16T15:00:49.618Z,2.37
2018-12-16T15:03:16.475Z,2.10
2018-12-16T15:05:43.309Z,2.10
2018-12-16T15:08:10.167Z,1.93
2018-12-16T15:10:37.215Z,2.30
2018-12-16T15:13:04.072Z,1.77
2018-12-16T15:15:30.907Z,2.37
2018-12-16T15:17:58.007Z,1.70
2018-12-16T15:20:25.845Z,1.97
2018-12-16T15:22:52.645Z,2.00
2018-12-16T15:25:19.489Z,2.00
2018-12-16T15:27:46.419Z,2.00
2018-12-16T15:30:13.366Z,2.77
2018-12-16T15:32:40.219Z,2.30
2018-12-16T15:35:07.065Z,1.87
2018-12-16T15:37:34.004Z,1.93
2018-12-16T15:40:00.955Z,1.80
2018-12-16T15:42:27.785Z,1.80
2018-12-16T15:44:54.615Z,2.20
2018-12-16T15:47:21.594Z,2.30
2018-12-16T15:49:48.526Z,2.03
2018-12-16T15:52:15.381Z,2.00
2018-12-16T15:54:42.213Z,2.10
2018-12-16T15:57:09.125Z,2.23
2018-12-16T15:59:36.139Z,2.10
2018-12-16T16:02:02.995Z,2.13
2018-12-16T16:04:29.849Z,1.73
2018-12-16T16:06:56.693Z,1.97
2018-12-16T16:09:23.697Z,2.17
2018-12-16T16:11:50.536Z,2.47
2018-12-16T16:14:17.574Z,2.50
2018-12-16T16:16:44.496Z,2.03
2018-12-16T16:19:11.441Z,2.50
2018-12-16T16:21:38.267Z,2.33
2018-12-16T16:24:05.131Z,2.20
2018-12-16T16:26:31.976Z,2.00
2018-12-16T16:28:58.809Z,1.90
2018-12-16T16:31:25.854Z,1.80
2018-12-16T16:33:52.989Z,2.07
2018-12-16T16:36:19.839Z,2.20
2018-12-16T16:38:48.316Z,2.00
2018-12-16T16:41:15.301Z,1.97
2018-12-16T16:43:42.151Z,2.03
2018-12-16T16:46:09.109Z,2.27
2018-12-16T16:48:35.925Z,2.30
2018-12-16T16:51:02.972Z,1.80
2018-12-16T16:53:29.798Z,2.13
2018-12-16T16:55:56.669Z,2.10
2018-12-16T16:58:23.497Z,2.00
2018-12-16T17:00:50.615Z,2.00
2018-12-16T17:03:17.484Z,2.50
2018-12-16T17:05:44.299Z,2.27
2018-12-16T17:08:15.435Z,2.40
2018-12-16T17:10:49.809Z,2.20
2018-12-16T17:13:20.348Z,2.97
2018-12-16T17:15:47.145Z,2.10
2018-12-16T17:18:14.000Z,2.13
2018-12-16T17:20:41.057Z,2.40
2018-12-16T17:23:08.672Z,2.20
2018-12-16T17:25:37.061Z,2.43
2018-12-16T17:28:04.009Z,2.73
2018-12-16T17:30:31.097Z,2.40
2018-12-16T17:32:58.068Z,2.47
2018-12-16T17:35:25.354Z,2.20
2018-12-16T17:37:52.501Z,2.67
2018-12-16T17:40:19.418Z,2.87
2018-12-16T17:42:46.458Z,2.90
2018-12-16T17:45:15.410Z,2.77
2018-12-16T17:47:42.756Z,2.90
2018-12-16T17:50:11.735Z,2.80
2018-12-16T17:52:39.229Z,2.90
2018-12-16T17:55:06.172Z,3.20
2018-12-16T17:57:33.068Z,3.00
2018-12-16T18:00:00.718Z,2.73
2018-12-16T18:02:28.058Z,3.03
2018-12-16T18:04:54.979Z,3.63
2018-12-16T18:07:21.822Z,2.90
2018-12-16T18:09:48.678Z,3.37
2018-12-16T18:12:15.531Z,3.23
2018-12-16T18:14:43.979Z,2.70
2018-12-16T18:17:10.800Z,3.27
2018-12-16T18:19:37.736Z,3.27
2018-12-16T18:22:04.611Z,3.47
2018-12-16T18:24:31.454Z,4.27
2018-12-16T18:26:58.313Z,2.83
2018-12-16T18:29:25.327Z,2.83
2018-12-16T18:31:52.272Z,3.43
2018-12-16T18:34:19.479Z,2.80
2018-12-16T18:36:46.324Z,3.77
2018-12-16T18:39:13.182Z,3.03
2018-12-16T18:41:40.086Z,3.20
2018-12-16T18:44:06.917Z,3.50
2018-12-16T18:46:33.812Z,3.53
2018-12-16T18:49:00.835Z,3.63
2018-12-16T18:51:27.690Z,3.73
2018-12-16T18:53:54.578Z,3.33
2018-12-16T18:56:21.426Z,3.70
2018-12-16T18:58:48.275Z,3.20
2018-12-16T19:01:15.283Z,3.53
2018-12-16T19:03:42.166Z,3.90
2018-12-16T19:06:09.010Z,3.90
2018-12-16T19:08:35.846Z,3.60
2018-12-16T19:11:02.840Z,4.43
2018-12-16T19:13:29.746Z,4.37
2018-12-16T19:15:56.736Z,4.20
2018-12-16T19:18:24.869Z,3.63
2018-12-16T19:20:52.244Z,4.13
2018-12-16T19:23:19.119Z,4.90
2018-12-16T19:25:45.956Z,4.00
2018-12-16T19:28:12.803Z,3.90
2018-12-16T19:30:39.878Z,4.00
2018-12-16T19:33:06.737Z,4.80
2018-12-16T19:35:33.564Z,4.40
2018-12-16T19:38:02.365Z,6.57
2018-12-16T19:40:29.444Z,6.40
2018-12-16T19:42:56.293Z,7.47
2018-12-16T19:45:23.122Z,7.40
2018-12-16T19:47:50.932Z,7.73
2018-12-16T19:50:17.845Z,7.10
2018-12-16T19:52:44.783Z,6.10
2018-12-16T19:55:11.662Z,7.00
2018-12-16T19:57:38.809Z,6.60
2018-12-16T20:00:06.138Z,6.80
2018-12-16T20:02:35.983Z,6.43
2018-12-16T20:05:03.080Z,20.10
2018-12-16T20:07:30.445Z,15.83
2018-12-16T20:09:57.547Z,14.33
2018-12-16T20:12:24.697Z,12.20
2018-12-16T20:14:51.568Z,11.80
2018-12-16T20:17:19.340Z,13.07
2018-12-16T20:19:46.591Z,10.70
2018-12-16T20:22:13.410Z,10.63
2018-12-16T20:24:40.257Z,11.23
2018-12-16T20:27:11.989Z,10.70
2018-12-16T20:29:38.182Z,10.97
2018-12-16T20:32:06.398Z,10.77
2018-12-16T20:34:33.495Z,10.50
2018-12-16T20:37:00.371Z,10.30
2018-12-16T20:39:27.440Z,9.57
2018-12-16T20:41:54.325Z,11.37
2018-12-16T20:44:21.229Z,10.33
2018-12-16T20:46:48.339Z,10.87
2018-12-16T20:49:15.471Z,9.87
2018-12-16T20:51:42.345Z,11.33
2018-12-16T20:54:09.211Z,10.37
2018-12-16T20:56:36.058Z,10.80
2018-12-16T20:59:02.926Z,9.60
2018-12-16T21:01:29.778Z,10.57
2018-12-16T21:03:56.620Z,10.30
2018-12-16T21:06:23.532Z,10.10
2018-12-16T21:08:52.388Z,10.17
2018-12-16T21:11:20.658Z,10.40
2018-12-16T21:13:47.515Z,10.90
2018-12-16T21:16:14.355Z,11.30
2018-12-16T21:18:41.217Z,10.07
2018-12-16T21:21:08.239Z,10.57
2018-12-16T21:23:35.090Z,9.83
2018-12-16T21:26:01.943Z,11.17
2018-12-16T21:28:28.778Z,11.00
2018-12-16T21:30:55.832Z,9.33
2018-12-16T21:33:22.774Z,10.07
2018-12-16T21:35:49.622Z,10.10
2018-12-16T21:38:16.557Z,9.80
2018-12-16T21:40:43.584Z,10.67
2018-12-16T21:43:10.444Z,10.37
2018-12-16T21:45:37.384Z,10.07
2018-12-16T21:48:04.231Z,10.60
2018-12-16T21:50:31.173Z,9.63
2018-12-16T21:52:58.006Z,9.43
2018-12-16T21:55:24.847Z,8.77
2018-12-16T21:57:51.727Z,9.57
2018-12-16T22:00:18.741Z,10.00
2018-12-16T22:02:45.606Z,9.10
2018-12-16T22:05:12.448Z,9.30
2018-12-16T22:07:39.298Z,9.07
2018-12-16T22:10:06.385Z,10.40
2018-12-16T22:12:33.255Z,9.50
2018-12-16T22:15:00.113Z,8.53
2018-12-16T22:17:27.482Z,9.30
2018-12-16T22:19:54.318Z,8.70
2018-12-16T22:22:21.137Z,8.77
2018-12-16T22:24:47.979Z,8.07
2018-12-16T22:27:14.954Z,8.40
2018-12-16T22:29:41.905Z,8.20
2018-12-16T22:32:08.824Z,8.67
2018-12-16T22:34:35.671Z,8.40
2018-12-16T22:37:02.515Z,7.00
2018-12-16T22:39:29.465Z,7.80
2018-12-16T22:41:56.553Z,7.57
2018-12-16T22:44:23.514Z,7.70
2018-12-16T22:46:50.364Z,7.77
2018-12-16T22:49:17.218Z,7.37
2018-12-16T22:51:44.068Z,7.70
2018-12-16T22:54:10.921Z,7.37
2018-12-16T22:56:37.764Z,8.23
2018-12-16T22:59:04.603Z,7.77
2018-12-16T23:01:31.456Z,7.20
2018-12-16T23:03:58.293Z,7.43
2018-12-16T23:06:25.169Z,8.30
2018-12-16T23:08:52.001Z,8.60
2018-12-16T23:11:18.868Z,7.03
2018-12-16T23:13:45.719Z,7.87
2018-12-16T23:16:12.538Z,7.20
2018-12-16T23:18:39.374Z,6.87
2018-12-16T23:21:06.397Z,7.10
2018-12-16T23:23:33.236Z,7.23
2018-12-16T23:26:00.076Z,7.10
2018-12-16T23:28:26.925Z,7.27
2018-12-16T23:30:53.992Z,7.43
2018-12-16T23:33:20.901Z,7.00
2018-12-16T23:35:47.838Z,6.73
2018-12-16T23:38:14.658Z,7.07
2018-12-16T23:40:41.563Z,7.87
2018-12-16T23:43:08.405Z,6.67
2018-12-16T23:45:35.235Z,6.63
2018-12-16T23:48:02.105Z,7.27
2018-12-16T23:50:29.135Z,6.30
2018-12-16T23:52:55.968Z,7.27
2018-12-16T23:55:22.821Z,7.13
2018-12-16T23:57:49.651Z,6.53
